This is the latest recevied telemetry packets stored in our database for station/object DJ6RG-20. If no packets are shown the sender has not sent any telemetry packets the latest 1 day(s).
Telemetry packets is used to share measurements like repeteater parameters, battery voltage, radiation readings (or any other measurements).
| Time | Press* | Temp.in* | Hum* | QNH* | Temp.out* |
|---|---|---|---|---|---|
| 1836274547 | 1003.8 hPa | 27 C deg | 40.1 % | 1020.3 hPa | 9.6 C deg |
| 1777999956 | 991.4 hPa | 28.5 C deg | 35 % | 1007.5 hPa | 16.4 C deg |
| 1777999948 | 991.4 hPa | 28.5 C deg | 35 % | 1007.5 hPa | 16.4 C deg |
| 1777998253 | 991.6 hPa | 28.5 C deg | 34.8 % | 1007.7 hPa | 16.6 C deg |
| 1777998133 | 991.6 hPa | 28.5 C deg | 34.8 % | 1007.7 hPa | 16.6 C deg |
| 1777996318 | 991.7 hPa | 28.6 C deg | 34.6 % | 1007.8 hPa | 16.5 C deg |
| 1777994502 | 991.9 hPa | 28.8 C deg | 34.2 % | 1008 hPa | 16.1 C deg |
| 1777992687 | 992.1 hPa | 28.7 C deg | 34.2 % | 1008.2 hPa | 16.1 C deg |
| 1777990872 | 992 hPa | 28.8 C deg | 33.7 % | 1008.2 hPa | 17.4 C deg |
| 1777989057 | 992.1 hPa | 28.8 C deg | 33.3 % | 1008.3 hPa | 17 C deg |
| 1777987291 | 992.2 hPa | 28.8 C deg | 33.1 % | 1008.4 hPa | 18.4 C deg |
| 1777987242 | 992.2 hPa | 28.8 C deg | 33.1 % | 1008.4 hPa | 18.4 C deg |
| 1777985427 | 992 hPa | 28.8 C deg | 33.2 % | 1008.2 hPa | 20.5 C deg |
| 1777983612 | 992.1 hPa | 28.8 C deg | 33.2 % | 1008.3 hPa | 22.6 C deg |
| 1777981797 | 992.4 hPa | 28.7 C deg | 33.3 % | 1008.5 hPa | 19.8 C deg |
| 1777979982 | 992.4 hPa | 28.7 C deg | 33.4 % | 1008.6 hPa | 23.8 C deg |
| 1777978167 | 992.6 hPa | 28.6 C deg | 33.6 % | 1008.8 hPa | 29.9 C deg |
| 1777976352 | 992.8 hPa | 28.4 C deg | 33.8 % | 1009 hPa | 31.9 C deg |
| 1777974537 | 993 hPa | 28.1 C deg | 34.1 % | 1009.2 hPa | 36.4 C deg |
| 1777972722 | 993.2 hPa | 27.8 C deg | 34.3 % | 1009.4 hPa | 31.3 C deg |
| 1777970907 | 993.2 hPa | 27.5 C deg | 34.5 % | 1009.5 hPa | 32.9 C deg |
| 1777969092 | 993.6 hPa | 27.5 C deg | 34.3 % | 1009.8 hPa | 32.5 C deg |
| 1777967477 | 993.8 hPa | 27.3 C deg | 34.5 % | 1010 hPa | 26.3 C deg |
| 1777967277 | 993.8 hPa | 27.3 C deg | 34.5 % | 1010 hPa | 26.3 C deg |
| 1777965462 | 993.9 hPa | 27.2 C deg | 34.5 % | 1010.2 hPa | 21.7 C deg |
*Used Equation Coefficients:
Press: 0, 1, 0
Temp.in: 0, 1, 0
Hum: 0, 1, 0
QNH: 0, 1, 0
Temp.out: 0, 1, 0
- The parameter names for the analog channels will be Value1, Value2, Value3 (up to Value5) if station has not sent a PARAM-packet that specifies the parameter names for each analog channel.
- Each analog value is a decimal number between 000 and 255 (according to APRS specifications). The receiver use the telemetry equation coefficientsto to restore the original sensor values. If no EQNS-packet with equation coefficients is sent we will show the values as is (this corresponds to the equation coefficients a=0, b=1 and c=0).
The sent equation coefficients is used in the equation: a * value2 + b * value + c. - The units for the analog values will not be shown if station has not sent a UNIT-packet specifying what unit's to use.
- The parameter names for the digital bits will be Bit1, Bit2, Bit3 (up to Bit8) if station has not sent a PARAM-packet that specifies the parameter names for each digital bit.
- All bit labels will be named "On" if station has not sent a UNIT-packet that specifies the label of each bit.
- A bit is considered to be On when the bit is 1 if station has not sent a BITS-packet that specifies another "Bit sense" (a BITS-packet specify the state of the bits that match the BIT labels)